Time;durP1;ratioP1;P1;durP2;ratioP2;P2;SDS_P1;SDS_P2;PMS_P1;PMS_P2;Temp;Humidity;BMP_temperature;BMP_pressure;BME280_temperature;BME280_humidity;BME280_pressure;Samples;Min_cycle;Max_cycle;Signal;HPM_P1;HPM_P2
2022/02/11 00:05:15;;;;;;;8.35;3.95;;;6.70;99.90;;;;;;1853080;76;21446;-75
2022/02/11 00:07:25;;;;;;;4.83;4.17;;;6.80;99.90;;;;;;1853221;76;21077;-74
2022/02/11 00:09:54;;;;;;;7.55;4.53;;;6.90;99.90;;;;;;1863242;76;21161;-74
2022/02/11 00:12:21;;;;;;;6.33;4.15;;;6.90;99.90;;;;;;1855763;76;21085;-74
2022/02/11 00:17:22;;;;;;;10.68;4.90;;;7.00;99.90;;;;;;1846140;77;21267;-73
2022/02/11 00:19:49;;;;;;;6.00;4.12;;;6.90;99.90;;;;;;1864530;76;21535;-74
2022/02/11 00:22:16;;;;;;;8.70;4.58;;;6.90;99.90;;;;;;1854615;76;21086;-75
2022/02/11 00:24:46;;;;;;;13.93;4.75;;;6.80;99.90;;;;;;1845989;76;21085;-76
2022/02/11 00:27:52;;;;;;;6.08;4.35;;;6.80;99.90;;;;;;1854609;76;21178;-72
2022/02/11 00:33:25;;;;;;;8.18;5.00;;;6.80;99.90;;;;;;1847057;77;21163;-75
2022/02/11 00:35:58;;;;;;;9.15;5.65;;;6.80;99.90;;;;;;1864849;76;21057;-74
2022/02/11 00:38:29;;;;;;;9.75;5.62;;;6.80;99.90;;;;;;1865346;75;21167;-74
2022/02/11 00:46:50;;;;;;;7.28;5.15;;;7.00;99.90;;;;;;1858204;76;21190;-74
2022/02/11 01:02:51;;;;;;;8.15;4.35;;;6.90;99.90;;;;;;1861188;76;21211;-75
2022/02/11 01:05:14;;;;;;;9.55;4.30;;;6.90;99.90;;;;;;1868518;76;21108;-74
2022/02/11 01:07:41;;;;;;;5.50;4.05;;;7.00;99.90;;;;;;1850841;76;21093;-75
2022/02/11 01:10:10;;;;;;;8.53;3.95;;;7.00;99.90;;;;;;1855071;76;21184;-75
2022/02/11 01:12:40;;;;;;;5.42;3.72;;;7.20;99.90;;;;;;1849766;76;21162;-75
2022/02/11 01:15:07;;;;;;;8.70;4.03;;;7.20;99.90;;;;;;1849389;77;21088;-75
2022/02/11 01:17:40;;;;;;;5.28;4.00;;;7.20;99.90;;;;;;1855337;76;21080;-75
2022/02/11 01:20:13;;;;;;;8.20;4.17;;;7.20;99.90;;;;;;1844768;76;21180;-75
2022/02/11 01:22:53;;;;;;;8.78;4.12;;;7.20;99.90;;;;;;1841545;77;21097;-75
2022/02/11 01:36:12;;;;;;;5.08;3.87;;;7.20;99.90;;;;;;1848820;76;21503;-75
2022/02/11 01:38:50;;;;;;;6.30;4.00;;;7.10;99.90;;;;;;1844306;76;21126;-73
2022/02/11 01:49:48;;;;;;;6.47;3.70;;;7.10;99.90;;;;;;1860647;74;21611;-74
2022/02/11 01:52:24;;;;;;;8.08;4.03;;;7.10;99.90;;;;;;1866037;76;21096;-74
2022/02/11 02:11:36;;;;;;;15.85;4.15;;;7.20;99.90;;;;;;1924532;73;21083;-74
2022/02/11 02:17:13;;;;;;;10.38;3.90;;;7.30;99.90;;;;;;1902658;73;21135;-74
2022/02/11 02:19:48;;;;;;;11.48;3.98;;;7.30;99.90;;;;;;1909586;72;21241;-74
2022/02/11 02:27:13;;;;;;;6.22;3.12;;;7.30;99.90;;;;;;1925245;73;21081;-74
2022/02/11 02:50:12;;;;;;;4.92;2.72;;;7.10;99.90;;;;;;1911946;74;21161;-75
2022/02/11 02:56:43;;;;;;;3.98;2.30;;;7.10;99.90;;;;;;1918702;73;21144;-74
2022/02/11 02:59:23;;;;;;;4.05;2.77;;;7.00;99.90;;;;;;1923133;73;21040;-72
2022/02/11 03:01:51;;;;;;;2.80;2.37;;;7.00;99.90;;;;;;1924390;73;21169;-72
2022/02/11 04:56:05;;;;;;;1.60;1.50;;;3.50;99.90;;;;;;1923715;73;21139;-73
2022/02/11 05:01:20;;;;;;;2.55;2.35;;;3.50;99.90;;;;;;1941119;73;21076;-75
2022/02/11 05:03:47;;;;;;;2.35;2.22;;;3.50;99.90;;;;;;1927552;73;21039;-73
2022/02/11 05:06:15;;;;;;;2.83;2.52;;;3.50;99.90;;;;;;1914330;72;21057;-73
2022/02/11 05:08:44;;;;;;;4.90;2.85;;;3.50;99.90;;;;;;1917003;73;21219;-74
2022/02/11 05:11:11;;;;;;;2.42;2.22;;;3.50;99.90;;;;;;1926974;72;22876;-74
2022/02/11 05:13:38;;;;;;;2.35;2.25;;;3.50;99.90;;;;;;1862831;76;21087;-74
2022/02/11 05:16:06;;;;;;;2.98;2.72;;;3.50;99.90;;;;;;1930075;73;21066;-74
2022/02/11 05:18:33;;;;;;;3.08;2.80;;;3.40;99.90;;;;;;1921171;73;21073;-74
2022/02/11 05:21:01;;;;;;;2.90;2.70;;;3.50;99.90;;;;;;1862659;76;21050;-74
2022/02/11 05:23:28;;;;;;;3.02;2.72;;;3.40;99.90;;;;;;1897534;74;21148;-74
2022/02/11 05:25:55;;;;;;;3.27;2.98;;;3.40;99.90;;;;;;1909614;74;21447;-74
2022/02/11 05:28:23;;;;;;;3.33;3.10;;;3.40;99.90;;;;;;1907149;74;21144;-73
2022/02/11 05:30:50;;;;;;;2.75;2.55;;;3.40;99.90;;;;;;1905913;74;21073;-74
2022/02/11 05:33:20;;;;;;;4.85;3.20;;;3.40;99.90;;;;;;1899935;74;21074;-74
2022/02/11 05:35:47;;;;;;;3.17;2.98;;;3.40;99.90;;;;;;1910481;74;21197;-74
2022/02/11 05:38:14;;;;;;;3.30;3.00;;;3.40;99.90;;;;;;1909527;74;21204;-74
2022/02/11 05:40:43;;;;;;;4.47;3.10;;;3.40;99.90;;;;;;1909007;74;21082;-73
2022/02/11 05:43:10;;;;;;;3.55;3.25;;;3.40;99.90;;;;;;1894007;75;21483;-74
2022/02/11 05:45:38;;;;;;;3.55;2.70;;;3.40;99.90;;;;;;1908950;75;21071;-74
2022/02/11 05:48:06;;;;;;;3.50;3.20;;;3.40;99.90;;;;;;1906058;74;21545;-73
2022/02/11 05:50:33;;;;;;;3.60;3.15;;;3.40;99.90;;;;;;1897138;74;21155;-73
2022/02/11 05:53:00;;;;;;;5.58;3.58;;;3.40;99.90;;;;;;1906815;74;21140;-73
2022/02/11 05:55:27;;;;;;;3.47;3.17;;;3.40;99.90;;;;;;1903089;75;21521;-74
2022/02/11 05:57:55;;;;;;;3.60;3.05;;;3.50;99.90;;;;;;1906884;74;21156;-74
2022/02/11 06:00:22;;;;;;;4.25;3.10;;;3.50;99.90;;;;;;1897930;74;21151;-73
2022/02/11 06:02:49;;;;;;;4.15;3.42;;;3.50;99.90;;;;;;1908525;74;21483;-72
2022/02/11 06:05:17;;;;;;;4.75;3.58;;;3.50;99.90;;;;;;1898334;74;21093;-73
2022/02/11 06:07:46;;;;;;;3.90;3.60;;;3.50;99.90;;;;;;1906880;74;21119;-73
2022/02/11 06:10:14;;;;;;;3.62;3.33;;;3.50;99.90;;;;;;1904659;74;21242;-74
2022/02/11 06:12:41;;;;;;;3.47;3.00;;;3.50;99.90;;;;;;1901936;74;21139;-73
2022/02/11 06:15:09;;;;;;;6.35;3.17;;;3.50;99.90;;;;;;1904016;74;21087;-72
2022/02/11 06:17:38;;;;;;;3.12;2.85;;;3.60;99.90;;;;;;1909625;74;21074;-73
2022/02/11 06:20:07;;;;;;;5.90;3.60;;;3.50;99.90;;;;;;1899775;74;21087;-74
2022/02/11 06:22:35;;;;;;;3.10;2.80;;;3.50;99.90;;;;;;1898794;74;21165;-73
2022/02/11 06:25:02;;;;;;;2.80;2.60;;;3.50;99.90;;;;;;1905095;74;21260;-72
2022/02/11 06:27:29;;;;;;;2.80;2.60;;;3.40;99.90;;;;;;1901173;74;21141;-77
2022/02/11 06:29:57;;;;;;;4.95;2.40;;;3.50;99.90;;;;;;1891404;74;21076;-74
2022/02/11 06:32:24;;;;;;;3.65;3.15;;;3.50;99.90;;;;;;1905321;74;21211;-73
2022/02/11 06:34:56;;;;;;;2.80;2.58;;;3.50;99.90;;;;;;1911268;74;21070;-75
2022/02/11 06:37:22;;;;;;;3.27;2.98;;;3.50;99.90;;;;;;1909304;74;21145;-74
2022/02/11 06:39:49;;;;;;;4.47;3.17;;;3.50;99.90;;;;;;1904111;74;21134;-74
2022/02/11 06:42:17;;;;;;;3.10;2.67;;;3.40;99.90;;;;;;1891147;74;21061;-77
2022/02/11 06:44:44;;;;;;;3.37;3.00;;;3.50;99.90;;;;;;1888265;74;21081;-75
2022/02/11 06:47:13;;;;;;;3.00;2.80;;;3.40;99.90;;;;;;1899043;74;21048;-79
2022/02/11 06:49:40;;;;;;;10.85;3.33;;;3.50;99.90;;;;;;1910576;74;21163;-76
2022/02/11 06:52:08;;;;;;;4.05;2.52;;;3.50;99.90;;;;;;1894936;74;21042;-73
2022/02/11 06:54:36;;;;;;;3.37;2.70;;;3.50;99.90;;;;;;1900962;74;21463;-78
2022/02/11 06:57:03;;;;;;;3.75;3.08;;;3.40;99.90;;;;;;1898341;74;21055;-77
2022/02/11 06:59:31;;;;;;;2.37;2.25;;;3.40;99.90;;;;;;1913978;74;22592;-81
2022/02/11 07:01:58;;;;;;;3.75;2.40;;;3.40;99.90;;;;;;1904385;74;21502;-81
2022/02/11 07:04:25;;;;;;;4.35;2.95;;;3.20;99.90;;;;;;1875922;74;21067;-81
2022/02/11 07:06:53;;;;;;;6.12;2.70;;;3.10;99.90;;;;;;1907734;74;21051;-84
2022/02/11 07:09:20;;;;;;;2.58;2.33;;;3.00;99.90;;;;;;1903065;75;21149;-80
2022/02/11 07:11:47;;;;;;;5.45;3.12;;;2.80;99.90;;;;;;1887828;74;21042;-83
2022/02/11 07:14:15;;;;;;;9.65;3.65;;;2.80;99.90;;;;;;1896343;74;21175;-85
2022/02/11 07:16:44;;;;;;;3.65;3.15;;;2.70;99.90;;;;;;1895711;74;21078;-86
2022/02/11 07:19:12;;;;;;;3.72;3.33;;;2.70;99.90;;;;;;1885622;74;21086;-84
2022/02/11 07:21:41;;;;;;;4.35;3.67;;;2.70;99.90;;;;;;1901429;74;21086;-84
2022/02/11 07:24:08;;;;;;;5.47;3.95;;;2.60;99.90;;;;;;1907643;74;21512;-85
2022/02/11 07:26:35;;;;;;;6.62;3.27;;;2.60;99.90;;;;;;1904902;74;21635;-83
2022/02/11 07:29:04;;;;;;;6.50;3.37;;;2.50;99.90;;;;;;1895104;74;21072;-83
2022/02/11 07:31:32;;;;;;;5.47;3.80;;;2.50;99.90;;;;;;1898299;74;21047;-86
2022/02/11 07:34:00;;;;;;;4.75;3.80;;;2.50;99.90;;;;;;1898957;75;21079;-85
2022/02/11 07:36:27;;;;;;;6.42;4.15;;;2.50;99.90;;;;;;1895000;74;21127;-83
2022/02/11 07:38:56;;;;;;;5.03;3.75;;;2.50;99.90;;;;;;1906514;74;21117;-85
2022/02/11 07:41:23;;;;;;;4.25;3.77;;;2.60;99.90;;;;;;1886880;74;21077;-84
2022/02/11 07:43:50;;;;;;;6.60;4.62;;;2.60;99.90;;;;;;1902619;74;21212;-84
2022/02/11 07:46:18;;;;;;;8.05;3.83;;;2.70;99.90;;;;;;1899813;74;21075;-85
2022/02/11 07:48:45;;;;;;;5.35;4.40;;;2.90;99.90;;;;;;1910914;74;21381;-81
2022/02/11 07:51:12;;;;;;;6.22;4.25;;;3.10;99.90;;;;;;1890606;74;21074;-85
2022/02/11 07:53:39;;;;;;;8.20;4.10;;;3.30;99.90;;;;;;1904117;74;21140;-85
2022/02/11 07:56:07;;;;;;;7.25;4.03;;;3.60;99.90;;;;;;1904869;74;21137;-84
2022/02/11 07:58:35;;;;;;;5.40;3.00;;;3.70;99.90;;;;;;1906987;74;21071;-81
2022/02/11 08:01:04;;;;;;;3.83;2.77;;;3.80;99.90;;;;;;1885903;74;21465;-84
2022/02/11 08:03:32;;;;;;;2.85;2.55;;;3.80;99.90;;;;;;1874639;76;21082;-85
2022/02/11 08:06:00;;;;;;;2.75;2.33;;;3.90;99.90;;;;;;1864287;76;21090;-82
2022/02/11 08:08:31;;;;;;;3.05;2.10;;;3.90;99.90;;;;;;1872081;75;21479;-82
2022/02/11 08:11:01;;;;;;;2.37;2.02;;;3.80;99.90;;;;;;1848837;76;21129;-83
2022/02/11 08:13:28;;;;;;;5.53;2.10;;;3.80;99.90;;;;;;1863125;76;21090;-81
2022/02/11 08:15:55;;;;;;;2.95;2.00;;;3.90;99.90;;;;;;1871575;76;21560;-81
2022/02/11 08:18:24;;;;;;;5.47;2.20;;;3.90;99.90;;;;;;1870852;76;21091;-80
2022/02/11 08:20:55;;;;;;;4.03;2.00;;;4.00;99.90;;;;;;1912340;73;21502;-80
2022/02/11 08:23:23;;;;;;;2.92;1.72;;;4.10;99.90;;;;;;1903124;73;21118;-79
2022/02/11 08:25:51;;;;;;;5.50;1.62;;;4.20;99.90;;;;;;1853335;76;21077;-79
2022/02/11 08:28:18;;;;;;;5.47;2.00;;;4.30;99.90;;;;;;1858635;75;21190;-79
2022/02/11 08:30:49;;;;;;;3.25;1.60;;;4.40;99.90;;;;;;1869857;75;21497;-80
2022/02/11 08:33:21;;;;;;;4.95;2.12;;;4.60;99.90;;;;;;1868382;75;21058;-79
2022/02/11 08:35:48;;;;;;;6.35;2.15;;;4.60;99.90;;;;;;1910605;74;21475;-84
2022/02/11 08:38:16;;;;;;;4.40;1.90;;;4.50;99.90;;;;;;1861818;76;21156;-85
2022/02/11 08:40:44;;;;;;;7.12;1.98;;;4.70;99.90;;;;;;1875438;76;21091;-84
2022/02/11 08:43:11;;;;;;;4.47;1.62;;;4.80;99.90;;;;;;1848125;76;21129;-83
2022/02/11 08:45:40;;;;;;;3.95;1.95;;;4.90;99.90;;;;;;1862448;76;21168;-80
2022/02/11 08:48:09;;;;;;;6.00;1.67;;;4.90;99.90;;;;;;1863500;76;21087;-82
2022/02/11 08:50:37;;;;;;;3.85;1.85;;;5.00;99.90;;;;;;1860407;76;21565;-82
2022/02/11 08:53:06;;;;;;;3.25;1.90;;;5.00;99.90;;;;;;1876625;76;21157;-80
2022/02/11 08:55:33;;;;;;;8.68;2.20;;;4.90;99.90;;;;;;1876481;76;21176;-80
2022/02/11 08:58:01;;;;;;;2.83;1.52;;;4.80;99.90;;;;;;1936867;73;21062;-82
2022/02/11 09:00:30;;;;;;;4.67;1.87;;;4.70;99.90;;;;;;1940537;72;21058;-81
2022/02/11 09:02:57;;;;;;;6.12;1.92;;;4.60;99.90;;;;;;1922766;72;21528;-83
2022/02/11 09:05:27;;;;;;;5.47;1.52;;;4.60;99.90;;;;;;1921722;73;21175;-83
2022/02/11 09:07:55;;;;;;;8.47;2.07;;;4.70;99.90;;;;;;1932810;73;21277;-83
2022/02/11 09:10:23;;;;;;;4.53;1.77;;;4.90;99.90;;;;;;1921128;73;22139;-80
2022/02/11 09:12:52;;;;;;;2.25;1.47;;;4.90;99.90;;;;;;1932124;73;21073;-81
2022/02/11 09:15:21;;;;;;;6.08;1.92;;;4.90;99.90;;;;;;1869703;74;21082;-83
2022/02/11 09:17:50;;;;;;;16.93;1.95;;;5.00;99.90;;;;;;1836777;76;21089;-85
2022/02/11 09:20:20;;;;;;;5.47;1.72;;;5.30;99.90;;;;;;1861919;76;21133;-82
2022/02/11 09:22:47;;;;;;;2.35;1.40;;;5.40;99.90;;;;;;1853796;76;21141;-82
2022/02/11 09:25:17;;;;;;;4.80;1.67;;;5.60;99.90;;;;;;1867624;76;21986;-82
2022/02/11 09:27:44;;;;;;;7.62;2.02;;;5.70;99.90;;;;;;1849015;76;21072;-80
2022/02/11 09:30:18;;;;;;;4.40;1.60;;;6.00;99.90;;;;;;1861717;75;21173;-79
2022/02/11 09:32:45;;;;;;;6.78;1.95;;;6.00;99.90;;;;;;1862124;76;21047;-87
2022/02/11 09:35:13;;;;;;;4.17;1.57;;;5.90;99.90;;;;;;1852332;76;21090;-80
2022/02/11 09:37:41;;;;;;;3.20;1.37;;;6.00;99.90;;;;;;1845658;76;21523;-78
2022/02/11 09:40:11;;;;;;;4.30;1.40;;;6.30;99.90;;;;;;1857779;76;21450;-76
2022/02/11 09:42:38;;;;;;;5.28;1.92;;;6.60;99.90;;;;;;1870593;76;21063;-79
2022/02/11 09:45:08;;;;;;;3.45;1.50;;;6.80;99.90;;;;;;1855855;76;21152;-78
2022/02/11 09:47:36;;;;;;;3.75;1.37;;;6.80;99.90;;;;;;1857636;76;22365;-79
2022/02/11 09:50:03;;;;;;;1.80;1.10;;;6.80;99.90;;;;;;1872610;76;21055;-78
2022/02/11 09:52:39;;;;;;;4.10;1.57;;;6.30;99.90;;;;;;1864922;75;21047;-80
2022/02/11 09:57:53;;;;;;;4.78;1.75;;;6.50;99.90;;;;;;1879011;76;21148;-78
2022/02/11 10:00:25;;;;;;;3.02;1.47;;;6.40;99.90;;;;;;1865115;76;21436;-79
2022/02/11 10:02:59;;;;;;;6.28;1.85;;;6.40;99.90;;;;;;1868683;76;21040;-78
2022/02/11 10:05:28;;;;;;;5.95;1.77;;;6.40;99.90;;;;;;1918996;73;21139;-78
2022/02/11 10:07:56;;;;;;;2.98;1.15;;;6.50;99.90;;;;;;1876208;75;21082;-79
2022/02/11 10:10:39;;;;;;;9.30;1.37;;;6.40;99.90;;;;;;1931195;73;21062;-78
2022/02/11 10:13:10;;;;;;;5.25;1.60;;;5.90;99.90;;;;;;1874230;76;21110;-79
2022/02/11 10:15:55;;;;;;;2.65;1.05;;;5.90;99.90;;;;;;1866465;76;21055;-78
2022/02/11 10:18:25;;;;;;;3.33;1.37;;;6.20;99.90;;;;;;1863502;75;21098;-76
2022/02/11 10:20:56;;;;;;;6.92;1.80;;;6.20;99.90;;;;;;1833508;76;21090;-76
2022/02/11 10:23:36;;;;;;;6.33;1.92;;;6.20;99.90;;;;;;1856701;76;21149;-78
2022/02/11 10:26:08;;;;;;;11.22;1.47;;;6.10;99.90;;;;;;1921980;73;21208;-79
2022/02/11 10:28:43;;;;;;;4.35;1.85;;;6.10;99.90;;;;;;1915989;73;21530;-78
2022/02/11 10:31:13;;;;;;;6.53;2.10;;;6.20;99.90;;;;;;1883928;73;21074;-77
2022/02/11 10:34:07;;;;;;;7.22;1.75;;;6.30;99.90;;;;;;1896799;75;21082;-78
2022/02/11 10:36:47;;;;;;;;;;;6.30;99.90;;;;;;1893971;75;21440;-78
2022/02/11 10:39:20;;;;;;;2.90;1.42;;;6.30;99.90;;;;;;1904130;75;20118;-79
2022/02/11 10:42:07;;;;;;;5.12;1.70;;;6.30;99.90;;;;;;1852000;74;21171;-79
2022/02/11 10:44:36;;;;;;;6.65;2.10;;;6.40;99.90;;;;;;1883393;75;21211;-78
2022/02/11 10:47:07;;;;;;;6.17;2.08;;;6.50;99.90;;;;;;1872156;75;21079;-77
2022/02/11 10:49:37;;;;;;;;;;;6.40;99.90;;;;;;1901971;75;21058;-77
2022/02/11 10:52:14;;;;;;;6.20;1.70;;;6.20;99.90;;;;;;1894632;74;20146;-77
2022/02/11 10:54:42;;;;;;;4.28;1.90;;;6.10;99.90;;;;;;1903631;75;21073;-78
2022/02/11 10:57:12;;;;;;;6.35;2.00;;;5.90;99.90;;;;;;1892096;75;21104;-79
2022/02/11 10:59:41;;;;;;;8.50;1.87;;;6.00;99.90;;;;;;1901854;75;21027;-78
2022/02/11 11:02:16;;;;;;;3.63;1.70;;;6.10;99.90;;;;;;1893048;75;21074;-80
2022/02/11 11:04:48;;;;;;;7.03;1.77;;;6.00;99.90;;;;;;1894885;74;21071;-77
2022/02/11 11:07:26;;;;;;;8.40;1.87;;;5.90;99.90;;;;;;1884023;75;21046;-76
2022/02/11 11:09:54;;;;;;;7.60;1.85;;;6.00;99.90;;;;;;1895799;75;21556;-80
2022/02/11 11:12:23;;;;;;;3.87;2.00;;;5.90;99.90;;;;;;1899946;75;21531;-78
2022/02/11 11:14:51;;;;;;;5.60;1.80;;;6.00;99.90;;;;;;1893551;75;21566;-79
2022/02/11 11:17:20;;;;;;;2.80;1.27;;;6.00;99.90;;;;;;1890821;75;21043;-78
2022/02/11 11:19:50;;;;;;;4.70;2.15;;;6.10;99.90;;;;;;1887617;75;21216;-81
2022/02/11 11:22:23;;;;;;;4.72;1.52;;;6.20;99.90;;;;;;1884329;75;21023;-80
2022/02/11 11:24:56;;;;;;;4.83;2.00;;;6.20;99.90;;;;;;1894087;75;21124;-80
2022/02/11 11:27:56;;;;;;;8.38;2.17;;;6.20;99.90;;;;;;1871610;75;21153;-85
2022/02/11 11:30:36;;;;;;;4.33;1.85;;;6.30;99.90;;;;;;1892793;75;21062;-82
2022/02/11 11:33:09;;;;;;;4.00;1.70;;;6.10;99.90;;;;;;1888870;75;21211;-77
2022/02/11 11:35:48;;;;;;;2.58;1.30;;;6.00;99.90;;;;;;1879225;76;21086;-83
2022/02/11 11:38:20;;;;;;;4.03;1.70;;;6.00;99.90;;;;;;1892246;75;21104;-87
2022/02/11 11:41:01;;;;;;;4.42;1.87;;;6.20;99.90;;;;;;1888445;75;21116;-83
2022/02/11 11:43:41;;;;;;;3.58;1.47;;;6.30;99.90;;;;;;1897934;75;21074;-83
2022/02/11 11:46:21;;;;;;;8.85;2.00;;;6.30;99.90;;;;;;1884186;76;21150;-83
2022/02/11 11:49:00;;;;;;;5.80;1.83;;;6.20;99.90;;;;;;1858477;76;21090;-84
2022/02/11 11:51:31;;;;;;;5.22;2.10;;;6.20;99.90;;;;;;1882397;76;21046;-85
2022/02/11 11:54:18;;;;;;;10.05;2.62;;;6.20;99.90;;;;;;1881904;76;21471;-82
2022/02/11 11:57:03;;;;;;;4.87;1.60;;;6.30;99.90;;;;;;1881776;76;21398;-83
2022/02/11 11:59:36;;;;;;;6.58;1.25;;;6.30;99.90;;;;;;1881834;76;21151;-80
2022/02/11 12:02:23;;;;;;;3.25;1.95;;;6.50;99.90;;;;;;1881657;76;21093;-85
2022/02/11 12:04:55;;;;;;;5.78;2.10;;;6.40;99.90;;;;;;1881300;74;21097;-85
2022/02/11 12:07:30;;;;;;;7.75;2.40;;;6.60;99.90;;;;;;1857632;76;21045;-86
2022/02/11 12:09:59;;;;;;;7.00;1.70;;;6.70;99.90;;;;;;1881845;76;21065;-86
2022/02/11 12:12:31;;;;;;;7.50;1.87;;;6.70;99.90;;;;;;1882730;76;21395;-82
2022/02/11 12:15:02;;;;;;;5.28;1.98;;;6.60;99.90;;;;;;1904543;75;21058;-82
2022/02/11 12:17:29;;;;;;;6.33;1.55;;;6.60;99.90;;;;;;1884548;74;21022;-84
2022/02/11 12:19:59;;;;;;;3.22;1.30;;;6.60;99.90;;;;;;1900587;75;21050;-82
2022/02/11 12:22:28;;;;;;;7.20;1.30;;;6.60;99.90;;;;;;1884757;74;21597;-83
2022/02/11 12:27:44;;;;;;;2.52;1.42;;;6.70;99.90;;;;;;1881171;74;21083;-85
2022/02/11 12:30:16;;;;;;;8.45;1.52;;;6.80;99.90;;;;;;1888763;74;21129;-83
2022/02/11 12:32:52;;;;;;;4.45;1.12;;;7.00;99.90;;;;;;1874447;74;21163;-83
2022/02/11 12:35:23;;;;;;;5.28;1.10;;;7.10;99.90;;;;;;1880132;74;21107;-82
2022/02/11 12:37:50;;;;;;;5.12;1.40;;;7.20;99.90;;;;;;1881884;75;21086;-84
2022/02/11 12:40:22;;;;;;;2.45;1.00;;;7.30;99.90;;;;;;1887465;74;21047;-84
2022/02/11 12:42:52;;;;;;;6.45;1.50;;;7.20;99.90;;;;;;1872713;74;21082;-86
2022/02/11 12:45:28;;;;;;;7.08;1.45;;;6.90;99.90;;;;;;1890062;74;21146;-84
2022/02/11 12:47:55;;;;;;;9.68;1.20;;;6.90;99.90;;;;;;1875685;74;21176;-84
2022/02/11 12:50:32;;;;;;;3.47;1.47;;;7.00;99.90;;;;;;1885920;75;21090;-84
2022/02/11 12:53:04;;;;;;;2.52;1.12;;;6.90;99.90;;;;;;1885181;75;21439;-85
2022/02/11 12:55:36;;;;;;;6.45;1.20;;;7.00;99.90;;;;;;1877054;74;21145;-87
2022/02/11 12:58:01;;;;;;;5.62;1.72;;;6.90;99.90;;;;;;1888970;74;21434;-87
2022/02/11 13:00:30;;;;;;;2.40;1.25;;;6.90;99.90;;;;;;1880158;74;21027;-85
2022/02/11 13:02:58;;;;;;;4.78;1.30;;;6.80;99.90;;;;;;1875049;74;21097;-86
2022/02/11 13:05:27;;;;;;;3.95;1.50;;;6.90;99.90;;;;;;1894910;74;21124;-87
2022/02/11 13:07:56;;;;;;;7.53;1.40;;;6.90;99.90;;;;;;1887165;74;21081;-84
2022/02/11 13:10:28;;;;;;;3.22;1.00;;;6.90;99.90;;;;;;1882551;74;21074;-86
2022/02/11 13:12:57;;;;;;;11.00;1.65;;;6.90;99.90;;;;;;1847188;77;21102;-84
2022/02/11 13:15:28;;;;;;;3.15;1.00;;;6.90;99.90;;;;;;1834150;77;21063;-85
2022/02/11 13:18:19;;;;;;;6.85;1.40;;;6.90;99.90;;;;;;1888237;75;21533;-84
2022/02/11 13:20:48;;;;;;;5.90;1.20;;;7.00;99.90;;;;;;1885969;75;21133;-85
2022/02/11 13:23:20;;;;;;;6.58;0.90;;;6.90;99.90;;;;;;1883205;75;21529;-84
2022/02/11 13:25:48;;;;;;;5.17;1.15;;;6.80;99.90;;;;;;1864016;75;21431;-85
2022/02/11 13:28:17;;;;;;;3.02;1.10;;;6.70;99.90;;;;;;1892599;75;21506;-82
2022/02/11 13:30:48;;;;;;;5.58;1.15;;;7.30;99.90;;;;;;1889285;75;21058;-77
2022/02/11 13:33:37;;;;;;;6.47;1.25;;;7.80;99.90;;;;;;1885881;74;21043;-86
2022/02/11 13:36:11;;;;;;;4.47;1.10;;;7.40;99.90;;;;;;1881326;75;21110;-79
2022/02/11 13:38:39;;;;;;;4.60;1.40;;;7.30;99.90;;;;;;1888343;75;21505;-77
2022/02/11 13:41:11;;;;;;;6.00;1.50;;;8.50;99.90;;;;;;1892081;75;21306;-82
2022/02/11 13:43:57;;;;;;;4.55;1.10;;;9.30;99.90;;;;;;1889946;75;21399;-76
2022/02/11 13:46:25;;;;;;;3.58;1.05;;;9.70;99.90;;;;;;1894316;74;21427;-77
2022/02/11 13:48:54;;;;;;;5.83;1.47;;;10.60;99.90;;;;;;1893401;75;21085;-73
2022/02/11 13:51:22;;;;;;;9.48;1.50;;;9.90;99.90;;;;;;1893449;75;21136;-73
2022/02/11 13:53:53;;;;;;;3.72;1.42;;;9.30;99.90;;;;;;1883682;75;21229;-79
2022/02/11 13:56:32;;;;;;;4.85;1.22;;;9.10;99.90;;;;;;1883885;75;21082;-80
2022/02/11 13:59:08;;;;;;;4.95;1.37;;;8.40;99.90;;;;;;1894179;75;21467;-83
2022/02/11 14:01:37;;;;;;;1.85;1.10;;;7.90;99.90;;;;;;1889604;75;21464;-83
2022/02/11 14:04:06;;;;;;;1.85;1.10;;;7.70;99.90;;;;;;1893355;75;21086;-80
2022/02/11 14:06:36;;;;;;;3.67;1.12;;;7.70;99.90;;;;;;1876726;75;21081;-83
2022/02/11 14:09:05;;;;;;;8.05;1.10;;;8.20;99.90;;;;;;1832691;76;21011;-81
2022/02/11 14:11:39;;;;;;;3.27;1.07;;;9.20;99.90;;;;;;1882021;76;21046;-82
2022/02/11 14:14:11;;;;;;;1.32;0.90;;;10.10;99.90;;;;;;1881501;76;21178;-82
2022/02/11 14:16:39;;;;;;;2.98;1.30;;;9.60;99.90;;;;;;1880537;76;21147;-81
2022/02/11 14:19:06;;;;;;;5.05;1.65;;;8.80;99.90;;;;;;1882052;76;21053;-81
2022/02/11 14:21:38;;;;;;;1.57;1.17;;;8.50;99.90;;;;;;1882317;76;21440;-82
2022/02/11 14:24:07;;;;;;;2.30;1.10;;;8.40;99.90;;;;;;1882819;76;21098;-82
2022/02/11 14:26:34;;;;;;;3.90;1.27;;;8.10;99.90;;;;;;1857485;76;21097;-80
2022/02/11 14:29:04;;;;;;;2.65;0.90;;;8.70;99.90;;;;;;1881976;76;21097;-80
2022/02/11 14:31:32;;;;;;;2.08;1.30;;;9.80;99.90;;;;;;1881814;76;21132;-81
2022/02/11 14:34:00;;;;;;;5.00;1.20;;;10.80;99.90;;;;;;1881657;76;21046;-79
2022/02/11 14:36:27;;;;;;;8.68;1.50;;;10.60;99.90;;;;;;1881685;76;21065;-77
2022/02/11 14:38:54;;;;;;;2.25;1.10;;;10.00;99.90;;;;;;1881638;76;21084;-81
2022/02/11 14:44:08;;;;;;;4.22;1.30;;;8.60;99.90;;;;;;1881468;76;21106;-80
2022/02/11 14:46:35;;;;;;;6.55;1.60;;;8.50;99.90;;;;;;1881436;76;21063;-78
2022/02/11 14:49:04;;;;;;;3.08;1.12;;;8.50;99.90;;;;;;1881498;76;21015;-80
2022/02/11 14:51:34;;;;;;;5.08;1.45;;;8.30;99.90;;;;;;1881482;76;21058;-77
2022/02/11 14:54:11;;;;;;;;;;;8.10;99.90;;;;;;1884340;76;21237;-80
2022/02/11 14:56:41;;;;;;;4.03;1.67;;;8.10;99.90;;;;;;1881604;76;20193;-79
2022/02/11 14:59:08;;;;;;;4.37;1.27;;;8.10;99.90;;;;;;1881655;76;21019;-76
2022/02/11 15:01:42;;;;;;;15.08;2.85;;;8.90;99.90;;;;;;1881449;76;21050;-78
2022/02/11 15:04:10;;;;;;;2.40;1.47;;;8.80;99.90;;;;;;1881509;76;21110;-79
2022/02/11 15:06:37;;;;;;;3.50;1.72;;;8.50;99.90;;;;;;1881438;76;21026;-79
2022/02/11 15:09:08;;;;;;;2.90;1.40;;;8.50;99.90;;;;;;1881431;76;21469;-76
2022/02/11 15:11:35;;;;;;;7.15;2.37;;;8.10;99.90;;;;;;1881717;76;21038;-81
2022/02/11 15:14:02;;;;;;;5.05;1.55;;;7.60;99.90;;;;;;1881670;76;21022;-82
2022/02/11 15:16:30;;;;;;;6.67;2.42;;;7.20;99.90;;;;;;1881469;76;21542;-81
2022/02/11 15:18:57;;;;;;;5.75;1.50;;;7.00;99.90;;;;;;1881612;76;21116;-80
2022/02/11 15:21:26;;;;;;;4.10;1.50;;;6.90;99.90;;;;;;1881013;76;21157;-80
2022/02/11 15:23:54;;;;;;;7.12;2.10;;;6.90;99.90;;;;;;1881557;76;21026;-81
2022/02/11 15:26:22;;;;;;;6.75;1.57;;;6.80;99.90;;;;;;1881468;76;21121;-83
2022/02/11 15:28:52;;;;;;;15.10;4.85;;;6.80;99.90;;;;;;1881563;76;21438;-82
2022/02/11 15:31:19;;;;;;;2.10;1.30;;;6.70;99.90;;;;;;1881467;76;21038;-82
2022/02/11 15:33:46;;;;;;;4.70;1.60;;;6.60;99.90;;;;;;1881605;76;21442;-79
2022/02/11 15:36:14;;;;;;;2.10;1.27;;;6.40;99.90;;;;;;1881520;76;21117;-80
2022/02/11 15:38:42;;;;;;;10.18;2.85;;;6.30;99.90;;;;;;1881528;76;21103;-81
2022/02/11 15:41:09;;;;;;;3.20;1.60;;;6.40;99.90;;;;;;1881613;76;21051;-82
2022/02/11 15:43:37;;;;;;;5.05;2.27;;;6.40;99.90;;;;;;1881530;76;21100;-83
2022/02/11 15:46:08;;;;;;;9.23;2.05;;;6.50;99.90;;;;;;1881741;76;21127;-81
2022/02/11 15:48:39;;;;;;;4.22;1.92;;;6.60;99.90;;;;;;1881664;76;21011;-78
2022/02/11 15:51:05;;;;;;;5.78;1.80;;;6.50;99.90;;;;;;1881250;75;21078;-81
2022/02/11 15:53:32;;;;;;;2.98;1.12;;;6.30;99.90;;;;;;1881581;76;21109;-82
2022/02/11 15:55:59;;;;;;;3.50;1.52;;;6.20;99.90;;;;;;1881619;76;21116;-82
2022/02/11 15:58:27;;;;;;;4.00;1.60;;;6.30;99.90;;;;;;1883148;76;21540;-78
2022/02/11 16:00:54;;;;;;;7.70;3.50;;;6.50;99.90;;;;;;1881531;76;21454;-81
2022/02/11 16:06:20;;;;;;;6.62;1.55;;;6.80;99.90;;;;;;1881571;76;21156;-79
2022/02/11 16:08:49;;;;;;;2.45;1.45;;;6.50;99.90;;;;;;1881553;76;21105;-76
2022/02/11 16:11:17;;;;;;;3.77;1.65;;;6.40;99.90;;;;;;1881507;76;21041;-79
2022/02/11 16:13:46;;;;;;;8.60;2.65;;;6.30;99.90;;;;;;1882513;76;21057;-78
2022/02/11 16:16:13;;;;;;;4.30;2.02;;;6.30;99.90;;;;;;1882268;75;21083;-73
2022/02/11 16:18:40;;;;;;;4.25;1.62;;;6.30;99.90;;;;;;1881416;76;21504;-73
2022/02/11 16:21:08;;;;;;;6.72;1.95;;;6.20;99.90;;;;;;1881620;76;21055;-74
2022/02/11 16:23:40;;;;;;;11.25;2.17;;;6.20;99.90;;;;;;1881632;76;21018;-75
2022/02/11 16:26:10;;;;;;;6.17;1.92;;;6.20;99.90;;;;;;1881631;76;21584;-80
2022/02/11 16:28:39;;;;;;;5.37;1.77;;;6.30;99.90;;;;;;1881714;76;21491;-83
2022/02/11 16:31:22;;;;;;;9.13;2.22;;;6.30;99.90;;;;;;1881644;76;21153;-83
2022/02/11 16:33:50;;;;;;;8.05;1.82;;;6.20;99.90;;;;;;1881742;75;21111;-83
2022/02/11 16:36:18;;;;;;;5.85;1.82;;;6.20;99.90;;;;;;1881868;76;21144;-81
2022/02/11 16:38:45;;;;;;;7.15;2.02;;;6.20;99.90;;;;;;1881780;76;21065;-83
2022/02/11 16:41:13;;;;;;;6.35;2.65;;;6.20;99.90;;;;;;1881654;76;21477;-83
2022/02/11 16:43:41;;;;;;;6.67;2.65;;;6.30;99.90;;;;;;1857393;76;21046;-81
2022/02/11 16:46:10;;;;;;;8.15;2.62;;;6.10;99.90;;;;;;1881687;76;21034;-85
2022/02/11 16:48:37;;;;;;;6.35;2.67;;;6.10;99.90;;;;;;1881512;76;21049;-86
2022/02/11 16:51:05;;;;;;;4.60;2.15;;;6.10;99.90;;;;;;1881930;76;21058;-84
2022/02/11 16:53:32;;;;;;;7.80;2.45;;;6.00;99.90;;;;;;1881880;76;21485;-86
2022/02/11 16:55:59;;;;;;;10.25;2.35;;;5.60;99.90;;;;;;1881817;76;21042;-88